createdAt,value
2023-04-02T00:01:21.202Z,9.96
2023-04-02T00:04:16.345Z,9.94
2023-04-02T00:06:49.167Z,9.92
2023-04-02T00:09:27.674Z,9.88
2023-04-02T00:11:55.920Z,9.84
2023-04-02T00:14:26.288Z,9.80
2023-04-02T00:16:55.733Z,9.81
2023-04-02T00:19:30.779Z,9.79
2023-04-02T00:22:00.077Z,9.85
2023-04-02T00:24:28.549Z,9.90
2023-04-02T00:26:56.807Z,9.81
2023-04-02T00:29:25.122Z,9.82
2023-04-02T00:31:54.519Z,9.83
2023-04-02T00:34:26.968Z,9.80
2023-04-02T00:36:55.148Z,9.85
2023-04-02T00:39:25.720Z,9.84
2023-04-02T00:41:58.657Z,9.92
2023-04-02T00:44:32.731Z,9.97
2023-04-02T00:47:05.288Z,9.99
2023-04-02T00:49:37.149Z,10.02
2023-04-02T00:52:07.848Z,10.11
2023-04-02T00:54:41.133Z,10.08
2023-04-02T00:57:16.364Z,10.07
2023-04-02T00:59:52.333Z,10.08
2023-04-02T01:02:26.241Z,10.03
2023-04-02T01:04:57.834Z,10.00
2023-04-02T01:07:39.300Z,9.96
2023-04-02T01:10:23.667Z,9.84
2023-04-02T01:12:57.840Z,9.99
2023-04-02T01:15:30.335Z,9.91
2023-04-02T01:18:18.072Z,10.00
2023-04-02T01:21:04.378Z,9.92
2023-04-02T01:23:37.833Z,9.94
2023-04-02T01:26:11.676Z,9.94
2023-04-02T01:28:52.414Z,9.97
2023-04-02T01:31:20.910Z,10.02
2023-04-02T01:33:49.112Z,9.93
2023-04-02T01:36:22.197Z,9.93
2023-04-02T01:38:56.547Z,9.94
2023-04-02T01:41:28.014Z,10.05
2023-04-02T01:44:00.675Z,9.97
2023-04-02T01:46:31.772Z,9.92
2023-04-02T01:49:02.354Z,9.80
2023-04-02T01:51:32.344Z,9.76
2023-04-02T01:54:03.492Z,9.72
2023-04-02T01:56:31.996Z,9.57
2023-04-02T01:59:02.650Z,9.50
2023-04-02T02:01:36.015Z,9.41
2023-04-02T02:04:04.246Z,9.44
2023-04-02T02:06:33.049Z,9.42
2023-04-02T02:09:04.511Z,9.38
2023-04-02T02:11:36.290Z,9.40
2023-04-02T02:14:12.726Z,9.42
2023-04-02T02:16:42.536Z,9.33
2023-04-02T02:19:21.248Z,9.34
2023-04-02T02:21:51.529Z,9.25
2023-04-02T02:24:22.149Z,9.28
2023-04-02T02:26:54.688Z,9.30
2023-04-02T02:29:25.949Z,9.35
2023-04-02T02:31:55.755Z,9.41
2023-04-02T02:34:26.337Z,9.46
2023-04-02T02:36:56.426Z,9.52
2023-04-02T02:39:27.974Z,9.58
2023-04-02T02:41:58.861Z,9.67
2023-04-02T02:44:31.186Z,9.73
2023-04-02T02:47:02.840Z,9.73
2023-04-02T02:49:33.668Z,9.83
2023-04-02T02:52:14.209Z,9.53
2023-04-02T02:54:52.075Z,9.83
2023-04-02T02:57:23.223Z,9.87
2023-04-02T02:59:54.730Z,9.88
2023-04-02T03:02:25.928Z,9.87
2023-04-02T03:04:56.114Z,9.86
2023-04-02T03:07:30.208Z,9.94
2023-04-02T03:10:05.471Z,9.98
2023-04-02T03:12:41.496Z,9.89
2023-04-02T03:15:18.395Z,9.76
2023-04-02T03:17:50.281Z,9.64
2023-04-02T03:20:22.363Z,9.59
2023-04-02T03:22:54.970Z,9.47
2023-04-02T03:25:27.745Z,9.43
2023-04-02T03:28:02.784Z,9.49
2023-04-02T03:30:38.305Z,9.56
2023-04-02T03:33:12.194Z,9.59
2023-04-02T03:35:43.331Z,9.61
2023-04-02T03:38:16.306Z,9.54
2023-04-02T03:40:55.106Z,9.46
2023-04-02T03:43:26.130Z,9.56
2023-04-02T03:46:00.630Z,9.55
2023-04-02T03:48:33.132Z,9.50
2023-04-02T03:51:04.493Z,9.53
2023-04-02T03:53:33.264Z,9.59
2023-04-02T03:56:02.589Z,9.58
2023-04-02T03:58:36.004Z,9.59
2023-04-02T04:01:12.260Z,9.58
2023-04-02T04:03:44.163Z,9.57
2023-04-02T04:06:16.826Z,9.53
2023-04-02T04:08:50.213Z,9.49
2023-04-02T04:11:21.597Z,9.54
2023-04-02T04:13:53.616Z,9.48
2023-04-02T04:16:27.531Z,9.44
2023-04-02T04:19:03.521Z,9.42
2023-04-02T04:21:38.066Z,9.45
2023-04-02T04:24:21.623Z,9.53
2023-04-02T04:26:55.452Z,9.45
2023-04-02T04:29:34.557Z,9.59
2023-04-02T04:32:18.124Z,9.63
2023-04-02T04:34:53.316Z,9.61
2023-04-02T04:37:29.137Z,9.60
2023-04-02T04:39:59.378Z,9.67
2023-04-02T04:42:31.061Z,9.70
2023-04-02T04:45:02.035Z,9.72
2023-04-02T04:47:33.579Z,9.74
2023-04-02T04:50:08.264Z,9.70
2023-04-02T04:52:40.899Z,9.74
2023-04-02T04:55:26.541Z,9.75
2023-04-02T04:57:56.850Z,9.77
2023-04-02T05:00:29.849Z,9.81
2023-04-02T05:03:03.671Z,9.83
2023-04-02T05:05:34.378Z,9.83
2023-04-02T05:08:10.633Z,9.73
2023-04-02T05:10:42.288Z,9.82
2023-04-02T05:13:16.465Z,9.79
2023-04-02T05:15:50.615Z,9.80
2023-04-02T05:18:26.073Z,9.81
2023-04-02T05:20:58.755Z,9.86
2023-04-02T05:23:30.609Z,9.91
2023-04-02T05:26:05.396Z,9.89
2023-04-02T05:28:38.685Z,9.94
2023-04-02T05:31:11.948Z,9.92
2023-04-02T05:33:46.385Z,9.87
2023-04-02T05:36:20.845Z,9.87
2023-04-02T05:38:53.337Z,9.97
2023-04-02T05:41:31.120Z,9.92
2023-04-02T05:44:07.076Z,9.95
2023-04-02T05:46:38.289Z,9.94
2023-04-02T05:49:11.696Z,9.91
2023-04-02T05:51:43.600Z,9.90
2023-04-02T05:54:23.282Z,9.87
2023-04-02T05:56:58.618Z,9.96
2023-04-02T05:59:30.062Z,10.00
2023-04-02T06:02:03.331Z,9.92
2023-04-02T06:04:42.165Z,10.00
2023-04-02T06:07:13.208Z,9.95
2023-04-02T06:09:48.141Z,9.96
2023-04-02T06:12:25.408Z,10.05
2023-04-02T06:14:53.910Z,9.95
2023-04-02T06:17:23.421Z,9.91
2023-04-02T06:19:54.217Z,9.93
2023-04-02T06:22:26.000Z,9.96
2023-04-02T06:25:01.088Z,10.05
2023-04-02T06:27:30.168Z,9.97
2023-04-02T06:30:02.072Z,9.95
2023-04-02T06:32:32.403Z,9.91
2023-04-02T06:35:02.845Z,9.98
2023-04-02T06:37:33.484Z,10.07
2023-04-02T06:40:27.163Z,9.96
2023-04-02T06:42:59.666Z,9.93
2023-04-02T06:45:56.171Z,9.89
2023-04-02T06:48:37.747Z,9.87
2023-04-02T06:51:09.519Z,9.87
2023-04-02T06:53:40.241Z,9.72
2023-04-02T06:56:18.578Z,9.90
2023-04-02T06:58:46.992Z,9.89
2023-04-02T07:01:16.776Z,9.92
2023-04-02T07:03:46.228Z,9.91
2023-04-02T07:06:22.831Z,9.84
2023-04-02T07:08:53.852Z,9.83
2023-04-02T07:11:23.709Z,9.83
2023-04-02T07:13:54.947Z,9.77
2023-04-02T07:16:26.351Z,9.90
2023-04-02T07:18:56.150Z,9.95
2023-04-02T07:21:27.432Z,9.85
2023-04-02T07:23:56.033Z,10.02
2023-04-02T07:26:26.620Z,9.91
2023-04-02T07:28:55.573Z,9.99
2023-04-02T07:31:25.727Z,9.81
2023-04-02T07:33:55.330Z,9.99
2023-04-02T07:36:24.793Z,10.02
2023-04-02T07:38:54.595Z,10.05
2023-04-02T07:41:23.265Z,10.05
2023-04-02T07:43:51.626Z,10.12
2023-04-02T07:46:20.233Z,10.21
2023-04-02T07:48:48.575Z,10.29
2023-04-02T07:51:18.110Z,10.21
2023-04-02T07:53:50.232Z,10.30
2023-04-02T07:56:20.932Z,10.32
2023-04-02T07:58:49.532Z,10.32
2023-04-02T08:01:20.734Z,10.38
2023-04-02T08:03:49.441Z,10.27
2023-04-02T08:06:18.609Z,10.30
2023-04-02T08:08:46.818Z,10.30
2023-04-02T08:11:14.827Z,10.31
2023-04-02T08:13:44.706Z,10.33
2023-04-02T08:16:13.152Z,10.45
2023-04-02T08:18:41.455Z,10.48
2023-04-02T08:21:10.479Z,10.55
2023-04-02T08:23:39.163Z,10.59
2023-04-02T08:26:07.598Z,10.64
2023-04-02T08:28:36.108Z,10.69
2023-04-02T08:31:05.593Z,10.82
2023-04-02T08:33:33.875Z,10.81
2023-04-02T08:36:01.883Z,10.84
2023-04-02T08:38:30.183Z,10.91
2023-04-02T08:41:01.281Z,11.01
2023-04-02T08:43:38.894Z,11.03
2023-04-02T08:46:13.012Z,11.01
2023-04-02T08:48:44.914Z,11.11
2023-04-02T08:51:22.680Z,11.19
2023-04-02T08:53:52.744Z,11.27
2023-04-02T08:56:22.232Z,11.44
2023-04-02T08:58:53.627Z,11.49
2023-04-02T09:01:34.504Z,11.54
2023-04-02T09:04:05.415Z,11.59
2023-04-02T09:06:34.557Z,11.53
2023-04-02T09:09:02.915Z,11.68
2023-04-02T09:11:35.637Z,11.75
2023-04-02T09:14:07.174Z,11.84
2023-04-02T09:16:41.205Z,11.92
2023-04-02T09:19:16.795Z,11.91
2023-04-02T09:21:47.692Z,11.91
2023-04-02T09:24:16.000Z,11.94
2023-04-02T09:26:44.168Z,12.09
2023-04-02T09:29:34.152Z,12.16
2023-04-02T09:32:12.674Z,12.23
2023-04-02T09:34:41.022Z,12.24
2023-04-02T09:37:14.104Z,12.37
2023-04-02T09:39:42.402Z,12.56
2023-04-02T09:42:30.419Z,12.53
2023-04-02T09:45:13.781Z,12.61
2023-04-02T09:47:43.259Z,12.73
2023-04-02T09:50:30.516Z,12.84
2023-04-02T09:52:58.776Z,12.92
2023-04-02T09:55:29.000Z,13.11
2023-04-02T09:58:13.451Z,13.16
2023-04-02T10:00:50.688Z,13.23
2023-04-02T10:03:26.643Z,13.28
2023-04-02T10:06:11.476Z,13.28
2023-04-02T10:08:41.433Z,13.36
2023-04-02T10:11:12.920Z,13.55
2023-04-02T10:13:47.214Z,13.61
2023-04-02T10:16:18.554Z,13.85
2023-04-02T10:18:50.662Z,14.07
2023-04-02T10:21:20.474Z,14.20
2023-04-02T10:23:48.528Z,14.36
2023-04-02T10:26:35.632Z,14.42
2023-04-02T10:29:14.188Z,14.60
2023-04-02T10:31:48.984Z,14.55
2023-04-02T10:34:22.754Z,14.59
2023-04-02T10:36:54.299Z,14.66
2023-04-02T10:39:25.003Z,14.60
2023-04-02T10:41:57.298Z,14.58
2023-04-02T10:44:31.376Z,14.51
2023-04-02T10:47:13.454Z,14.42
2023-04-02T10:49:46.997Z,14.32
2023-04-02T10:52:21.209Z,14.35
2023-04-02T10:54:50.714Z,14.28
2023-04-02T10:57:29.122Z,14.34
2023-04-02T11:00:01.151Z,14.36
2023-04-02T11:02:37.452Z,14.37
2023-04-02T11:05:17.959Z,13.71
2023-04-02T11:07:53.266Z,13.26
2023-04-02T11:10:21.669Z,12.89
2023-04-02T11:12:56.607Z,12.66
2023-04-02T11:15:24.838Z,12.45
2023-04-02T11:17:53.144Z,12.38
2023-04-02T11:21:03.877Z,12.30
2023-04-02T11:23:36.498Z,12.06
2023-04-02T11:26:30.563Z,12.09
2023-04-02T11:29:04.111Z,12.13
2023-04-02T11:31:32.348Z,12.15
2023-04-02T11:34:00.749Z,12.25
2023-04-02T11:37:01.067Z,12.27
2023-04-02T11:39:53.525Z,12.39
2023-04-02T11:42:32.886Z,12.41
2023-04-02T11:45:19.566Z,12.27
2023-04-02T11:48:22.331Z,12.28
2023-04-02T11:50:50.749Z,12.28
2023-04-02T11:53:23.502Z,12.37
2023-04-02T11:58:53.599Z,12.13
2023-04-02T12:01:43.807Z,12.11
2023-04-02T12:04:44.382Z,12.10
2023-04-02T12:07:26.777Z,12.02
2023-04-02T12:09:56.301Z,12.03
2023-04-02T12:12:28.069Z,12.04
2023-04-02T12:14:58.236Z,12.12
2023-04-02T12:17:29.965Z,12.12
2023-04-02T12:19:59.842Z,12.09
2023-04-02T12:22:30.197Z,12.21
2023-04-02T12:25:01.595Z,12.20
2023-04-02T12:27:30.602Z,12.23
2023-04-02T12:30:15.270Z,12.30
2023-04-02T12:32:43.589Z,12.37
2023-04-02T12:35:27.929Z,12.42
2023-04-02T12:37:57.150Z,12.51
2023-04-02T12:40:26.257Z,12.46
2023-04-02T12:42:54.909Z,12.42
2023-04-02T12:45:27.814Z,12.39
2023-04-02T12:47:58.366Z,12.38
2023-04-02T12:50:26.585Z,12.35
2023-04-02T12:52:58.390Z,12.40
2023-04-02T12:55:27.282Z,12.36
2023-04-02T12:57:56.877Z,12.34
2023-04-02T13:00:35.830Z,12.25
2023-04-02T13:03:19.719Z,12.12
2023-04-02T13:05:51.460Z,12.07
2023-04-02T13:08:23.426Z,12.13
2023-04-02T13:10:57.168Z,12.06
2023-04-02T13:13:28.935Z,12.05
2023-04-02T13:16:07.832Z,12.07
2023-04-02T13:18:38.310Z,12.09
2023-04-02T13:21:07.387Z,12.09
2023-04-02T13:23:37.541Z,12.23
2023-04-02T13:26:13.139Z,12.32
2023-04-02T13:28:41.611Z,12.32
2023-04-02T13:31:15.406Z,12.33
2023-04-02T13:33:43.730Z,12.32
2023-04-02T13:36:14.535Z,12.31
2023-04-02T13:38:43.256Z,12.32
2023-04-02T13:41:20.778Z,12.23
2023-04-02T13:43:49.873Z,12.17
2023-04-02T13:46:22.380Z,12.19
2023-04-02T13:48:52.176Z,12.19
2023-04-02T13:51:22.418Z,12.13
2023-04-02T13:53:55.397Z,12.07
2023-04-02T13:56:24.592Z,12.06
2023-04-02T13:58:53.349Z,12.10
2023-04-02T14:01:23.996Z,12.11
2023-04-02T14:03:52.374Z,12.02
2023-04-02T14:06:23.677Z,12.01
2023-04-02T14:09:00.280Z,11.93
2023-04-02T14:11:37.162Z,11.95
2023-04-02T14:14:20.589Z,11.91
2023-04-02T14:16:59.850Z,11.81
2023-04-02T14:19:37.374Z,11.77
2023-04-02T14:22:14.655Z,11.73
2023-04-02T14:24:46.933Z,11.55
2023-04-02T14:27:25.552Z,11.56
2023-04-02T14:30:00.637Z,11.50
2023-04-02T14:32:34.082Z,11.45
2023-04-02T14:35:10.088Z,11.48
2023-04-02T14:37:42.115Z,11.42
2023-04-02T14:40:18.096Z,11.40
2023-04-02T14:42:48.896Z,11.39
2023-04-02T14:45:24.348Z,11.37
2023-04-02T14:47:56.363Z,11.32
2023-04-02T14:50:27.971Z,11.31
2023-04-02T14:52:59.598Z,11.28
2023-04-02T14:55:32.720Z,11.24
2023-04-02T14:58:03.508Z,11.19
2023-04-02T15:00:36.124Z,11.15
2023-04-02T15:03:10.071Z,11.07
2023-04-02T15:05:42.523Z,11.15
2023-04-02T15:08:19.430Z,11.11
2023-04-02T15:11:03.768Z,11.07
2023-04-02T15:13:38.172Z,11.04
2023-04-02T15:16:12.622Z,10.80
2023-04-02T15:18:42.181Z,10.78
2023-04-02T15:21:29.619Z,10.75
2023-04-02T15:24:02.495Z,10.71
2023-04-02T15:26:36.658Z,10.69
2023-04-02T15:29:25.837Z,10.61
2023-04-02T15:32:03.034Z,10.62
2023-04-02T15:34:34.691Z,10.63
2023-04-02T15:37:09.390Z,10.63
2023-04-02T15:39:43.268Z,10.56
2023-04-02T15:42:17.914Z,10.54
2023-04-02T15:44:57.638Z,10.45
2023-04-02T15:47:33.500Z,10.43
2023-04-02T15:50:11.410Z,10.29
2023-04-02T15:52:47.923Z,10.37
2023-04-02T15:55:22.591Z,10.40
2023-04-02T15:58:21.851Z,10.38
2023-04-02T16:00:54.544Z,10.32
2023-04-02T16:03:49.263Z,10.26
2023-04-02T16:06:29.636Z,10.24
2023-04-02T16:09:04.591Z,10.15
2023-04-02T16:11:33.511Z,10.05
2023-04-02T16:14:12.037Z,10.04
2023-04-02T16:16:41.590Z,10.01
2023-04-02T16:19:15.997Z,9.98
2023-04-02T16:21:50.148Z,9.95
2023-04-02T16:24:18.512Z,9.85
2023-04-02T16:26:53.450Z,9.97
2023-04-02T16:29:55.726Z,9.99
2023-04-02T16:32:44.682Z,10.00
2023-04-02T16:35:41.627Z,9.94
2023-04-02T16:38:19.957Z,9.86
2023-04-02T16:41:06.897Z,9.86
2023-04-02T16:43:44.581Z,9.87
2023-04-02T16:46:31.763Z,9.82
2023-04-02T16:49:14.452Z,9.81
2023-04-02T16:51:47.004Z,9.74
2023-04-02T16:54:20.770Z,9.67
2023-04-02T16:56:58.355Z,9.72
2023-04-02T16:59:35.035Z,9.70
2023-04-02T17:02:09.935Z,9.73
2023-04-02T17:04:54.777Z,9.59
2023-04-02T17:07:28.726Z,9.57
2023-04-02T17:10:31.848Z,9.56
2023-04-02T17:13:19.391Z,9.43
2023-04-02T17:15:57.750Z,9.43
2023-04-02T17:18:36.582Z,9.41
2023-04-02T17:21:08.547Z,9.27
2023-04-02T17:23:55.416Z,9.25
2023-04-02T17:26:27.555Z,9.19
2023-04-02T17:28:56.635Z,9.14
2023-04-02T17:31:26.313Z,9.19
2023-04-02T17:33:54.679Z,9.10
2023-04-02T17:36:33.188Z,9.11
2023-04-02T17:39:10.837Z,9.08
2023-04-02T17:41:45.423Z,9.06
2023-04-02T17:44:40.341Z,8.90
2023-04-02T17:47:13.967Z,8.87
2023-04-02T17:49:47.751Z,8.92
2023-04-02T17:52:19.315Z,8.88
2023-04-02T17:54:53.822Z,8.82
2023-04-02T17:57:38.815Z,8.66
2023-04-02T18:00:20.163Z,8.66
2023-04-02T18:03:00.641Z,8.78
2023-04-02T18:05:31.616Z,8.82
2023-04-02T18:08:07.922Z,8.82
2023-04-02T18:10:39.390Z,8.80
2023-04-02T18:13:17.166Z,8.65
2023-04-02T18:15:53.513Z,8.61
2023-04-02T18:18:32.128Z,8.54
2023-04-02T18:21:08.423Z,8.46
2023-04-02T18:23:41.134Z,8.38
2023-04-02T18:26:13.965Z,8.35
2023-04-02T18:28:49.752Z,8.31
2023-04-02T18:31:28.983Z,8.25
2023-04-02T18:34:09.568Z,8.23
2023-04-02T18:36:45.082Z,8.24
2023-04-02T18:39:17.327Z,8.24
2023-04-02T18:41:50.443Z,8.23
2023-04-02T18:44:36.543Z,8.22
2023-04-02T18:47:09.100Z,8.09
2023-04-02T18:49:40.071Z,8.25
2023-04-02T18:52:12.483Z,8.20
2023-04-02T18:54:42.663Z,8.24
2023-04-02T18:57:13.105Z,8.20
2023-04-02T18:59:46.258Z,8.18
2023-04-02T19:02:30.530Z,8.15
2023-04-02T19:05:01.259Z,8.12
2023-04-02T19:07:30.892Z,8.07
2023-04-02T19:10:01.977Z,8.11
2023-04-02T19:12:33.711Z,8.00
2023-04-02T19:15:07.135Z,7.88
2023-04-02T19:17:39.246Z,7.77
2023-04-02T19:20:15.048Z,7.62
2023-04-02T19:22:47.187Z,7.69
2023-04-02T19:25:22.630Z,7.63
2023-04-02T19:28:00.564Z,7.74
2023-04-02T19:31:09.374Z,7.76
2023-04-02T19:33:43.306Z,7.85
2023-04-02T19:36:23.238Z,7.77
2023-04-02T19:39:02.803Z,7.75
2023-04-02T19:41:32.909Z,7.83
2023-04-02T19:44:01.286Z,7.76
2023-04-02T19:46:30.777Z,7.82
2023-04-02T19:49:04.628Z,7.77
2023-04-02T19:51:33.525Z,7.76
2023-04-02T19:54:01.877Z,7.56
2023-04-02T19:56:30.262Z,7.42
2023-04-02T19:59:02.261Z,7.54
2023-04-02T20:01:34.407Z,7.48
2023-04-02T20:04:03.650Z,7.43
2023-04-02T20:06:31.868Z,7.53
2023-04-02T20:09:00.540Z,7.72
2023-04-02T20:11:29.151Z,7.71
2023-04-02T20:13:57.512Z,7.67
2023-04-02T20:16:25.541Z,7.65
2023-04-02T20:18:55.531Z,7.63
2023-04-02T20:21:23.710Z,7.52
2023-04-02T20:23:53.796Z,7.53
2023-04-02T20:26:22.624Z,7.56
2023-04-02T20:28:51.299Z,7.64
2023-04-02T20:31:19.532Z,7.65
2023-04-02T20:33:47.928Z,7.59
2023-04-02T20:36:18.445Z,7.62
2023-04-02T20:38:46.939Z,7.56
2023-04-02T20:41:16.143Z,7.55
2023-04-02T20:43:44.408Z,7.79
2023-04-02T20:46:13.400Z,7.75
2023-04-02T20:48:41.721Z,7.81
2023-04-02T20:51:11.280Z,7.90
2023-04-02T20:53:41.058Z,7.99
2023-04-02T20:56:10.850Z,7.71
2023-04-02T20:58:39.662Z,7.80
2023-04-02T21:01:09.458Z,7.74
2023-04-02T21:03:39.633Z,7.74
2023-04-02T21:06:09.021Z,7.66
2023-04-02T21:08:37.826Z,7.55
2023-04-02T21:11:08.175Z,7.42
2023-04-02T21:13:37.162Z,7.33
2023-04-02T21:16:06.091Z,7.28
2023-04-02T21:18:34.443Z,7.40
2023-04-02T21:21:04.269Z,7.44
2023-04-02T21:23:33.181Z,7.40
2023-04-02T21:26:03.674Z,7.41
2023-04-02T21:28:33.995Z,7.33
2023-04-02T21:31:06.199Z,7.28
2023-04-02T21:33:37.219Z,7.22
2023-04-02T21:36:09.658Z,7.22
2023-04-02T21:38:38.524Z,7.19
2023-04-02T21:41:14.171Z,7.21
2023-04-02T21:43:44.092Z,7.14
2023-04-02T21:46:12.141Z,6.98
2023-04-02T21:48:41.715Z,6.89
2023-04-02T21:51:11.372Z,6.95
2023-04-02T21:53:40.014Z,7.02
2023-04-02T21:56:10.011Z,7.28
2023-04-02T21:58:38.433Z,7.26
2023-04-02T22:01:13.997Z,7.27
2023-04-02T22:03:42.719Z,7.24
2023-04-02T22:06:12.566Z,7.08
2023-04-02T22:08:41.776Z,7.08
2023-04-02T22:11:11.381Z,7.18
2023-04-02T22:13:40.927Z,7.33
2023-04-02T22:16:13.364Z,7.39
2023-04-02T22:18:41.888Z,7.32
2023-04-02T22:21:10.345Z,7.40
2023-04-02T22:23:39.568Z,7.35
2023-04-02T22:26:09.147Z,7.22
2023-04-02T22:28:38.216Z,7.07
2023-04-02T22:31:08.264Z,7.17
2023-04-02T22:33:38.043Z,7.23
2023-04-02T22:36:07.049Z,7.35
2023-04-02T22:38:35.722Z,7.26
2023-04-02T22:41:05.608Z,7.15
2023-04-02T22:43:34.112Z,7.15
2023-04-02T22:46:02.295Z,7.19
2023-04-02T22:48:30.711Z,7.09
2023-04-02T22:51:00.464Z,6.96
2023-04-02T22:53:29.955Z,7.17
2023-04-02T22:56:02.765Z,7.21
2023-04-02T22:58:31.034Z,7.02
2023-04-02T23:01:04.321Z,6.77
2023-04-02T23:03:32.521Z,6.72
2023-04-02T23:06:03.347Z,6.52
2023-04-02T23:08:31.662Z,6.45
2023-04-02T23:11:03.592Z,6.45
2023-04-02T23:13:32.971Z,6.62
2023-04-02T23:16:02.257Z,6.31
2023-04-02T23:18:30.694Z,6.26
2023-04-02T23:20:58.796Z,6.07
2023-04-02T23:23:28.665Z,6.01
2023-04-02T23:26:04.372Z,6.07
2023-04-02T23:28:32.752Z,5.99
2023-04-02T23:31:02.702Z,6.33
2023-04-02T23:33:30.993Z,6.09
2023-04-02T23:35:59.305Z,5.90
2023-04-02T23:38:28.979Z,5.95
2023-04-02T23:40:56.976Z,6.10
2023-04-02T23:43:25.302Z,6.25
2023-04-02T23:45:53.341Z,6.24
2023-04-02T23:48:21.579Z,6.09
2023-04-02T23:50:49.577Z,6.16
2023-04-02T23:53:18.624Z,6.20
2023-04-02T23:55:47.990Z,6.09
2023-04-02T23:58:16.440Z,5.81
